DLH5OP EDDH-EDDP
Flight info
| Callsign | DLH5OP |
|---|---|
| Flight time | 0h 52m |
| Altitude | 23000 |
| Route | AMLUH2G AMLUH M852 DENIX Z113 SAS Z88 UPDAT/N0484F270 T236 ADMOS/N0456F230 T959 KOJEC KOJEC1V |
| Aircraft | A359/H-SDE2E3GHIJ3J4J5LM1ORWXY/LB1D1 |
Departure
| Time | 2026-04-23 18:25 |
|---|---|
| Airport | Hamburg Helmut Schmidt Airport (EDDH) |
Arrival
| Time | 2026-04-23 19:18 |
|---|---|
| Airport | Leipzig/Halle Airport (EDDP) |
| Time | Latitude | Longitude | Altitude | Speed | Heading |
|---|---|---|---|---|---|
| 2026-04-23 17:39 | 53.62933 | 10.00267 | 0 ft | 0 kts | 121° |
| 2026-04-23 18:15 | 53.62934 | 10.00265 | 57 ft | 1 kts | 121° |
| 2026-04-23 18:16 | 53.62948 | 10.00229 | 49 ft | 4 kts | 130° |
| 2026-04-23 18:16 | 53.62967 | 10.00198 | 49 ft | 4 kts | 144° |
| 2026-04-23 18:16 | 53.62989 | 10.00176 | 49 ft | 4 kts | 164° |
| 2026-04-23 18:17 | 53.63032 | 10.00181 | 49 ft | 1 kts | 213° |
| 2026-04-23 18:20 | 53.63004 | 10.00151 | 49 ft | 13 kts | 213° |
| 2026-04-23 18:20 | 53.62911 | 10.00056 | 51 ft | 15 kts | 206° |
| 2026-04-23 18:21 | 53.62856 | 9.99984 | 51 ft | 0 kts | 237° |
| 2026-04-23 18:24 | 53.62853 | 9.99976 | 57 ft | 6 kts | 237° |
| 2026-04-23 18:24 | 53.62822 | 9.99822 | 50 ft | 7 kts | 284° |
| 2026-04-23 18:25 | 53.62965 | 9.99653 | 49 ft | 45 kts | 332° |
| 2026-04-23 18:25 | 53.63482 | 9.99213 | 51 ft | 118 kts | 333° |
| 2026-04-23 18:25 | 53.64387 | 9.98456 | 304 ft | 155 kts | 328° |
| 2026-04-23 18:25 | 53.65301 | 9.97697 | 1370 ft | 138 kts | 330° |
| 2026-04-23 18:26 | 53.66221 | 9.96906 | 1758 ft | 159 kts | 332° |
| 2026-04-23 18:26 | 53.67274 | 9.95983 | 2057 ft | 182 kts | 332° |
| 2026-04-23 18:26 | 53.68413 | 9.95025 | 2709 ft | 185 kts | 336° |
| 2026-04-23 18:26 | 53.69688 | 9.94581 | 3406 ft | 192 kts | 358° |
| 2026-04-23 18:27 | 53.71011 | 9.95087 | 4071 ft | 201 kts | 20° |
| 2026-04-23 18:27 | 53.71794 | 9.95964 | 4547 ft | 208 kts | 37° |
| 2026-04-23 18:27 | 53.72649 | 9.98024 | 5254 ft | 218 kts | 56° |
| 2026-04-23 18:27 | 53.73523 | 10.01120 | 6183 ft | 221 kts | 56° |
| 2026-04-23 18:28 | 53.73902 | 10.02777 | 6606 ft | 229 kts | 70° |
| 2026-04-23 18:28 | 53.73750 | 10.05571 | 7014 ft | 260 kts | 107° |
| 2026-04-23 18:28 | 53.72830 | 10.08405 | 7208 ft | 287 kts | 120° |
| 2026-04-23 18:28 | 53.71737 | 10.11255 | 7781 ft | 293 kts | 119° |
| 2026-04-23 18:29 | 53.70637 | 10.14147 | 8400 ft | 298 kts | 119° |
| 2026-04-23 18:29 | 53.69522 | 10.17137 | 9033 ft | 303 kts | 118° |
| 2026-04-23 18:29 | 53.68314 | 10.20092 | 9659 ft | 310 kts | 132° |
| 2026-04-23 18:29 | 53.66472 | 10.21995 | 10346 ft | 314 kts | 162° |
| 2026-04-23 18:30 | 53.64341 | 10.22916 | 10741 ft | 327 kts | 168° |
| 2026-04-23 18:30 | 53.62060 | 10.23767 | 11012 ft | 343 kts | 167° |
| 2026-04-23 18:30 | 53.59684 | 10.24725 | 11281 ft | 358 kts | 166° |
| 2026-04-23 18:30 | 53.57210 | 10.25742 | 11540 ft | 371 kts | 167° |
| 2026-04-23 18:31 | 53.54641 | 10.26639 | 11847 ft | 381 kts | 169° |
| 2026-04-23 18:31 | 53.52039 | 10.27452 | 12287 ft | 386 kts | 170° |
| 2026-04-23 18:31 | 53.49387 | 10.28253 | 12801 ft | 389 kts | 170° |
| 2026-04-23 18:31 | 53.46705 | 10.29069 | 13310 ft | 391 kts | 169° |
| 2026-04-23 18:32 | 53.44005 | 10.29910 | 13805 ft | 394 kts | 169° |
| 2026-04-23 18:32 | 53.41336 | 10.30759 | 14253 ft | 397 kts | 169° |
| 2026-04-23 18:32 | 53.38609 | 10.31639 | 14700 ft | 399 kts | 169° |
| 2026-04-23 18:32 | 53.35869 | 10.32531 | 15169 ft | 400 kts | 169° |
| 2026-04-23 18:33 | 53.33119 | 10.33427 | 15617 ft | 402 kts | 169° |
| 2026-04-23 18:33 | 53.30406 | 10.34310 | 16100 ft | 404 kts | 169° |
| 2026-04-23 18:33 | 53.27645 | 10.35207 | 16560 ft | 406 kts | 169° |
| 2026-04-23 18:33 | 53.24849 | 10.36113 | 17022 ft | 408 kts | 169° |
| 2026-04-23 18:34 | 53.22053 | 10.37017 | 17496 ft | 410 kts | 169° |
| 2026-04-23 18:34 | 53.19237 | 10.37926 | 17940 ft | 412 kts | 169° |
| 2026-04-23 18:34 | 53.16447 | 10.38824 | 18373 ft | 415 kts | 169° |
| 2026-04-23 18:34 | 53.13607 | 10.39738 | 18781 ft | 417 kts | 169° |
| 2026-04-23 18:35 | 53.10740 | 10.40660 | 19169 ft | 420 kts | 169° |
| 2026-04-23 18:35 | 53.07856 | 10.41585 | 19559 ft | 422 kts | 169° |
| 2026-04-23 18:35 | 53.04965 | 10.42512 | 19930 ft | 424 kts | 169° |
| 2026-04-23 18:35 | 53.02051 | 10.43445 | 20321 ft | 426 kts | 169° |
| 2026-04-23 18:36 | 52.99171 | 10.44365 | 20691 ft | 428 kts | 169° |
| 2026-04-23 18:36 | 52.96226 | 10.45305 | 21072 ft | 430 kts | 169° |
| 2026-04-23 18:36 | 52.93267 | 10.46248 | 21455 ft | 432 kts | 169° |
| 2026-04-23 18:36 | 52.90340 | 10.47180 | 21822 ft | 434 kts | 169° |
| 2026-04-23 18:37 | 52.87363 | 10.48126 | 22191 ft | 436 kts | 169° |
| 2026-04-23 18:37 | 52.84365 | 10.49078 | 22557 ft | 438 kts | 169° |
| 2026-04-23 18:37 | 52.81365 | 10.50029 | 22914 ft | 440 kts | 169° |
| 2026-04-23 18:37 | 52.78329 | 10.50990 | 23197 ft | 443 kts | 169° |
| 2026-04-23 18:38 | 52.75258 | 10.51961 | 23248 ft | 460 kts | 169° |
| 2026-04-23 18:38 | 52.72090 | 10.52962 | 23251 ft | 475 kts | 169° |
| 2026-04-23 18:38 | 52.68833 | 10.53989 | 23250 ft | 476 kts | 169° |
| 2026-04-23 18:38 | 52.65573 | 10.55014 | 23251 ft | 475 kts | 169° |
| 2026-04-23 18:39 | 52.62320 | 10.56035 | 23251 ft | 475 kts | 169° |
| 2026-04-23 18:39 | 52.59064 | 10.57056 | 23245 ft | 475 kts | 169° |
| 2026-04-23 18:39 | 52.55852 | 10.58062 | 23246 ft | 475 kts | 169° |
| 2026-04-23 18:39 | 52.52596 | 10.59080 | 23246 ft | 475 kts | 169° |
| 2026-04-23 18:40 | 52.49433 | 10.60068 | 23244 ft | 475 kts | 168° |
| 2026-04-23 18:40 | 52.46192 | 10.61078 | 23243 ft | 475 kts | 168° |
| 2026-04-23 18:40 | 52.42939 | 10.62092 | 23242 ft | 475 kts | 169° |
| 2026-04-23 18:40 | 52.39726 | 10.63091 | 23238 ft | 475 kts | 168° |
| 2026-04-23 18:41 | 52.36473 | 10.64103 | 23238 ft | 475 kts | 168° |
| 2026-04-23 18:41 | 52.33209 | 10.65116 | 23240 ft | 475 kts | 168° |
| 2026-04-23 18:41 | 52.29957 | 10.66122 | 23243 ft | 475 kts | 168° |
| 2026-04-23 18:41 | 52.26741 | 10.67115 | 23234 ft | 475 kts | 168° |
| 2026-04-23 18:42 | 52.23529 | 10.68296 | 22768 ft | 471 kts | 163° |
| 2026-04-23 18:42 | 52.20505 | 10.70285 | 22020 ft | 466 kts | 150° |
| 2026-04-23 18:42 | 52.17779 | 10.73097 | 21386 ft | 458 kts | 143° |
| 2026-04-23 18:42 | 52.15197 | 10.76095 | 20698 ft | 453 kts | 142° |
| 2026-04-23 18:43 | 52.12651 | 10.79100 | 20007 ft | 450 kts | 142° |
| 2026-04-23 18:43 | 52.10125 | 10.82085 | 19329 ft | 446 kts | 142° |
| 2026-04-23 18:43 | 52.07621 | 10.85041 | 18655 ft | 443 kts | 142° |
| 2026-04-23 18:43 | 52.05160 | 10.87941 | 17928 ft | 439 kts | 142° |
| 2026-04-23 18:44 | 52.02689 | 10.90848 | 17232 ft | 435 kts | 142° |
| 2026-04-23 18:44 | 52.00245 | 10.93720 | 16529 ft | 431 kts | 142° |
| 2026-04-23 18:44 | 51.97831 | 10.96551 | 15843 ft | 427 kts | 142° |
| 2026-04-23 18:44 | 51.95436 | 10.99358 | 15166 ft | 423 kts | 142° |
| 2026-04-23 18:45 | 51.93061 | 11.02138 | 14500 ft | 419 kts | 142° |
| 2026-04-23 18:45 | 51.90729 | 11.04863 | 13814 ft | 415 kts | 142° |
| 2026-04-23 18:45 | 51.88398 | 11.07583 | 13067 ft | 412 kts | 142° |
| 2026-04-23 18:45 | 51.86076 | 11.10288 | 12323 ft | 408 kts | 142° |
| 2026-04-23 18:46 | 51.83770 | 11.12972 | 11673 ft | 404 kts | 142° |
| 2026-04-23 18:46 | 51.81511 | 11.15596 | 11313 ft | 393 kts | 142° |
| 2026-04-23 18:46 | 51.79365 | 11.18084 | 11226 ft | 373 kts | 142° |
| 2026-04-23 18:46 | 51.77308 | 11.20465 | 11214 ft | 353 kts | 142° |
| 2026-04-23 18:47 | 51.75432 | 11.22842 | 11202 ft | 332 kts | 134° |
| 2026-04-23 18:47 | 51.73969 | 11.25679 | 11163 ft | 340 kts | 119° |
| 2026-04-23 18:47 | 51.72710 | 11.29161 | 11115 ft | 375 kts | 115° |
| 2026-04-23 18:47 | 51.71461 | 11.32922 | 11064 ft | 388 kts | 115° |
| 2026-04-23 18:48 | 51.70216 | 11.36705 | 10848 ft | 373 kts | 114° |
| 2026-04-23 18:48 | 51.69033 | 11.40301 | 10527 ft | 349 kts | 114° |
| 2026-04-23 18:48 | 51.67934 | 11.43641 | 10113 ft | 323 kts | 114° |
| 2026-04-23 18:48 | 51.66925 | 11.46722 | 9571 ft | 309 kts | 114° |
| 2026-04-23 18:49 | 51.65937 | 11.49751 | 8952 ft | 299 kts | 114° |
| 2026-04-23 18:49 | 51.64969 | 11.52726 | 8439 ft | 300 kts | 114° |
| 2026-04-23 18:49 | 51.64008 | 11.55669 | 8240 ft | 295 kts | 114° |
| 2026-04-23 18:49 | 51.63169 | 11.58236 | 8220 ft | 295 kts | 114° |
| 2026-04-23 18:50 | 51.62535 | 11.60173 | 8221 ft | 295 kts | 114° |
| 2026-04-23 18:50 | 51.61253 | 11.64081 | 8221 ft | 295 kts | 114° |
| 2026-04-23 18:50 | 51.60307 | 11.66959 | 8223 ft | 295 kts | 114° |
| 2026-04-23 18:50 | 51.59351 | 11.69864 | 8223 ft | 295 kts | 114° |
| 2026-04-23 18:51 | 51.58388 | 11.72787 | 8223 ft | 295 kts | 114° |
| 2026-04-23 18:51 | 51.57426 | 11.75705 | 8222 ft | 295 kts | 114° |
| 2026-04-23 18:51 | 51.57114 | 11.76648 | 8224 ft | 295 kts | 114° |
| 2026-04-23 18:51 | 51.56759 | 11.77725 | 8223 ft | 295 kts | 114° |
| 2026-04-23 18:52 | 51.55815 | 11.80577 | 8222 ft | 295 kts | 114° |
| 2026-04-23 18:52 | 51.54852 | 11.83492 | 8226 ft | 295 kts | 114° |
| 2026-04-23 18:52 | 51.53995 | 11.86482 | 8220 ft | 292 kts | 106° |
| 2026-04-23 18:52 | 51.53495 | 11.89618 | 8217 ft | 288 kts | 94° |
| 2026-04-23 18:53 | 51.53441 | 11.92799 | 8222 ft | 283 kts | 82° |
| 2026-04-23 18:53 | 51.53579 | 11.95957 | 8216 ft | 283 kts | 81° |
| 2026-04-23 18:53 | 51.53738 | 11.99105 | 8216 ft | 283 kts | 81° |
| 2026-04-23 18:53 | 51.53899 | 12.02219 | 8216 ft | 283 kts | 81° |
| 2026-04-23 18:54 | 51.54053 | 12.05368 | 8212 ft | 283 kts | 81° |
| 2026-04-23 18:54 | 51.54204 | 12.08541 | 8051 ft | 284 kts | 81° |
| 2026-04-23 18:54 | 51.54354 | 12.11680 | 7644 ft | 283 kts | 81° |
| 2026-04-23 18:54 | 51.54503 | 12.14834 | 7252 ft | 282 kts | 81° |
| 2026-04-23 18:55 | 51.54651 | 12.17973 | 6851 ft | 280 kts | 81° |
| 2026-04-23 18:55 | 51.54797 | 12.21090 | 6467 ft | 279 kts | 82° |
| 2026-04-23 18:55 | 51.54944 | 12.24179 | 6097 ft | 277 kts | 82° |
| 2026-04-23 18:55 | 51.55090 | 12.27266 | 5869 ft | 278 kts | 82° |
| 2026-04-23 18:56 | 51.55186 | 12.29327 | 5591 ft | 278 kts | 82° |
| 2026-04-23 18:56 | 51.55373 | 12.33448 | 5120 ft | 273 kts | 83° |
| 2026-04-23 18:56 | 51.55509 | 12.36434 | 4751 ft | 271 kts | 83° |
| 2026-04-23 18:56 | 51.55645 | 12.39452 | 4332 ft | 270 kts | 83° |
| 2026-04-23 18:57 | 51.55778 | 12.42473 | 3892 ft | 270 kts | 83° |
| 2026-04-23 18:57 | 51.55911 | 12.45500 | 3477 ft | 270 kts | 83° |
| 2026-04-23 18:57 | 51.56044 | 12.48454 | 3114 ft | 267 kts | 82° |
| 2026-04-23 18:57 | 51.56178 | 12.51443 | 2994 ft | 268 kts | 83° |
| 2026-04-23 18:58 | 51.56309 | 12.54451 | 2989 ft | 269 kts | 82° |
| 2026-04-23 18:58 | 51.56264 | 12.57464 | 2987 ft | 273 kts | 99° |
| 2026-04-23 18:58 | 51.55487 | 12.60160 | 2982 ft | 261 kts | 128° |
| 2026-04-23 18:58 | 51.54125 | 12.61856 | 2978 ft | 247 kts | 158° |
| 2026-04-23 18:59 | 51.52480 | 12.62551 | 2989 ft | 243 kts | 173° |
| 2026-04-23 18:59 | 51.50792 | 12.62846 | 2986 ft | 243 kts | 184° |
| 2026-04-23 18:59 | 51.49213 | 12.62092 | 2988 ft | 235 kts | 216° |
| 2026-04-23 18:59 | 51.48014 | 12.60386 | 2998 ft | 229 kts | 232° |
| 2026-04-23 19:00 | 51.46967 | 12.58452 | 2994 ft | 229 kts | 234° |
| 2026-04-23 19:00 | 51.45953 | 12.56525 | 2995 ft | 228 kts | 234° |
| 2026-04-23 19:00 | 51.45020 | 12.54572 | 2986 ft | 210 kts | 245° |
| 2026-04-23 19:00 | 51.44591 | 12.52488 | 2986 ft | 187 kts | 268° |
| 2026-04-23 19:01 | 51.44491 | 12.50502 | 2989 ft | 170 kts | 271° |
| 2026-04-23 19:01 | 51.44396 | 12.48660 | 3015 ft | 164 kts | 271° |
| 2026-04-23 19:01 | 51.44311 | 12.46828 | 2970 ft | 166 kts | 270° |
| 2026-04-23 19:01 | 51.44214 | 12.44990 | 2766 ft | 166 kts | 270° |
| 2026-04-23 19:02 | 51.44150 | 12.43769 | 2607 ft | 164 kts | 270° |
| 2026-04-23 19:02 | 51.44041 | 12.41343 | 2294 ft | 160 kts | 271° |
| 2026-04-23 19:02 | 51.43960 | 12.39622 | 2062 ft | 149 kts | 271° |
| 2026-04-23 19:02 | 51.43869 | 12.38047 | 1896 ft | 136 kts | 271° |
| 2026-04-23 19:03 | 51.43783 | 12.36497 | 1953 ft | 157 kts | 271° |
| 2026-04-23 19:03 | 51.43694 | 12.34637 | 2411 ft | 182 kts | 270° |
| 2026-04-23 19:03 | 51.43576 | 12.32401 | 2767 ft | 217 kts | 269° |
| 2026-04-23 19:03 | 51.43426 | 12.29887 | 3328 ft | 239 kts | 268° |
| 2026-04-23 19:04 | 51.43258 | 12.27140 | 3833 ft | 252 kts | 268° |
| 2026-04-23 19:04 | 51.43082 | 12.24333 | 3986 ft | 254 kts | 267° |
| 2026-04-23 19:04 | 51.42905 | 12.21506 | 3997 ft | 255 kts | 267° |
| 2026-04-23 19:04 | 51.42726 | 12.18670 | 3991 ft | 256 kts | 267° |
| 2026-04-23 19:05 | 51.42549 | 12.15857 | 3990 ft | 256 kts | 267° |
| 2026-04-23 19:05 | 51.42369 | 12.13025 | 3996 ft | 256 kts | 267° |
| 2026-04-23 19:05 | 51.42195 | 12.10180 | 4030 ft | 255 kts | 268° |
| 2026-04-23 19:05 | 51.42423 | 12.07390 | 4432 ft | 253 kts | 295° |
| 2026-04-23 19:06 | 51.43457 | 12.05164 | 5246 ft | 253 kts | 321° |
| 2026-04-23 19:06 | 51.45021 | 12.03928 | 5779 ft | 252 kts | 347° |
| 2026-04-23 19:06 | 51.46775 | 12.03791 | 6025 ft | 253 kts | 2° |
| 2026-04-23 19:06 | 51.48549 | 12.04041 | 6195 ft | 256 kts | 4° |
| 2026-04-23 19:07 | 51.50322 | 12.04339 | 6217 ft | 256 kts | 4° |
| 2026-04-23 19:07 | 51.52053 | 12.04831 | 6206 ft | 259 kts | 17° |
| 2026-04-23 19:07 | 51.53556 | 12.06425 | 6209 ft | 264 kts | 44° |
| 2026-04-23 19:07 | 51.54536 | 12.08953 | 6212 ft | 269 kts | 62° |
| 2026-04-23 19:08 | 51.55271 | 12.11746 | 6213 ft | 271 kts | 64° |
| 2026-04-23 19:08 | 51.55972 | 12.14556 | 6214 ft | 271 kts | 64° |
| 2026-04-23 19:08 | 51.56669 | 12.17382 | 6213 ft | 271 kts | 64° |
| 2026-04-23 19:08 | 51.57262 | 12.20250 | 6219 ft | 275 kts | 75° |
| 2026-04-23 19:09 | 51.57463 | 12.23332 | 6221 ft | 277 kts | 84° |
| 2026-04-23 19:09 | 51.57514 | 12.26438 | 6199 ft | 279 kts | 88° |
| 2026-04-23 19:09 | 51.57203 | 12.29507 | 5868 ft | 279 kts | 102° |
| 2026-04-23 19:09 | 51.56658 | 12.32508 | 5452 ft | 279 kts | 104° |
| 2026-04-23 19:10 | 51.56090 | 12.35483 | 5082 ft | 277 kts | 104° |
| 2026-04-23 19:10 | 51.55538 | 12.38396 | 4701 ft | 274 kts | 104° |
| 2026-04-23 19:10 | 51.54982 | 12.41336 | 4254 ft | 275 kts | 104° |
| 2026-04-23 19:10 | 51.54430 | 12.44243 | 4017 ft | 267 kts | 104° |
| 2026-04-23 19:11 | 51.53895 | 12.47048 | 3858 ft | 257 kts | 104° |
| 2026-04-23 19:11 | 51.53373 | 12.49753 | 3697 ft | 248 kts | 104° |
| 2026-04-23 19:11 | 51.52869 | 12.52343 | 3471 ft | 243 kts | 105° |
| 2026-04-23 19:11 | 51.52577 | 12.54996 | 3144 ft | 239 kts | 88° |
| 2026-04-23 19:12 | 51.52521 | 12.56757 | 3005 ft | 239 kts | 92° |
| 2026-04-23 19:12 | 51.51935 | 12.59275 | 2989 ft | 245 kts | 124° |
| 2026-04-23 19:12 | 51.50135 | 12.61370 | 2998 ft | 245 kts | 164° |
| 2026-04-23 19:12 | 51.48469 | 12.61935 | 3000 ft | 244 kts | 173° |
| 2026-04-23 19:13 | 51.47345 | 12.62005 | 2988 ft | 242 kts | 189° |
| 2026-04-23 19:13 | 51.45840 | 12.61007 | 2991 ft | 231 kts | 226° |
| 2026-04-23 19:13 | 51.45002 | 12.58903 | 2995 ft | 221 kts | 256° |
| 2026-04-23 19:13 | 51.44744 | 12.56514 | 2994 ft | 217 kts | 271° |
| 2026-04-23 19:14 | 51.44659 | 12.54114 | 2998 ft | 219 kts | 270° |
| 2026-04-23 19:14 | 51.44550 | 12.51674 | 2992 ft | 219 kts | 270° |
| 2026-04-23 19:14 | 51.44429 | 12.49237 | 2996 ft | 218 kts | 269° |
| 2026-04-23 19:14 | 51.44302 | 12.46830 | 2955 ft | 212 kts | 269° |
| 2026-04-23 19:15 | 51.44180 | 12.44496 | 2708 ft | 209 kts | 269° |
| 2026-04-23 19:15 | 51.44076 | 12.42205 | 2416 ft | 208 kts | 270° |
| 2026-04-23 19:15 | 51.43972 | 12.39884 | 2134 ft | 207 kts | 270° |
| 2026-04-23 19:15 | 51.43864 | 12.37636 | 1930 ft | 197 kts | 269° |
| 2026-04-23 19:16 | 51.43749 | 12.35557 | 1753 ft | 177 kts | 269° |
| 2026-04-23 19:16 | 51.43643 | 12.33697 | 1491 ft | 161 kts | 270° |
| 2026-04-23 19:16 | 51.43604 | 12.31923 | 1103 ft | 159 kts | 270° |
| 2026-04-23 19:17 | 51.43448 | 12.28667 | 693 ft | 138 kts | 266° |
| 2026-04-23 19:17 | 51.43386 | 12.27175 | 526 ft | 128 kts | 269° |
| 2026-04-23 19:17 | 51.43321 | 12.25834 | 441 ft | 114 kts | 266° |
| 2026-04-23 19:17 | 51.43278 | 12.24839 | 441 ft | 68 kts | 265° |
| 2026-04-23 19:18 | 51.43247 | 12.24262 | 429 ft | 29 kts | 255° |
| 2026-04-23 19:18 | 51.43118 | 12.24178 | 426 ft | 21 kts | 176° |
| 2026-04-23 19:18 | 51.43014 | 12.24188 | 437 ft | 0 kts | 177° |
| 2026-04-23 19:18 | 51.43013 | 12.24188 | 437 ft | 1 kts | 177° |
| 2026-04-23 19:19 | 51.42922 | 12.23913 | 440 ft | 14 kts | 265° |
| 2026-04-23 19:19 | 51.42916 | 12.23754 | 428 ft | 13 kts | 266° |
| 2026-04-23 19:20 | 51.42911 | 12.23624 | 436 ft | 9 kts | 266° |
| 2026-04-23 19:20 | 51.42905 | 12.23505 | 435 ft | 12 kts | 264° |
| 2026-04-23 19:20 | 51.42897 | 12.23354 | 432 ft | 15 kts | 265° |
| 2026-04-23 19:20 | 51.42888 | 12.23154 | 429 ft | 20 kts | 266° |
| 2026-04-23 19:21 | 51.42877 | 12.22916 | 430 ft | 22 kts | 265° |
| 2026-04-23 19:21 | 51.42852 | 12.22380 | 440 ft | 26 kts | 265° |
| 2026-04-23 19:21 | 51.42839 | 12.22080 | 440 ft | 28 kts | 265° |
| 2026-04-23 19:22 | 51.42825 | 12.21766 | 431 ft | 29 kts | 266° |
| 2026-04-23 19:22 | 51.42807 | 12.21434 | 437 ft | 30 kts | 266° |
| 2026-04-23 19:22 | 51.42625 | 12.21165 | 457 ft | 15 kts | 195° |
| 2026-04-23 19:23 | 51.42483 | 12.21094 | 437 ft | 26 kts | 189° |
| 2026-04-23 19:23 | 51.42413 | 12.21075 | 449 ft | 0 kts | 189° |